Anzali, Iran

3:51 AM IRDT on August 01, 2014 (GMT +0430)
Rasht (OIGG) Elev -30 ft | 37.33 °N, 49.61 °E | Change Station

Current weather conditions updated 1 hour ago

Rain Showers
Thunderstorm Showers Rain
73 °F
Feels Like 73 °F
N
12
Wind Variable Wind from WSW

Today is forecast to be Warmer than yesterday.

Today
High -- | Low -- °F
--% Chance of Precip.
Yesterday
High -- | Low -- °F
Precip. -- in
6:15 AM 8:20 PM
Waxing Crescent, 21% visible
Pressure 29.83 in
Visibility 4.3 miles
Clouds Scattered Clouds 2000 ft
Scattered Clouds 2500 ft
Mostly Cloudy 8000 ft
Dew Point 68 °F
Humidity 83%
Rainfall 0.00 in
Snow Depth Not available.
UV 0 out of 12
Pollen Not available.
Air Quality Not available.
Flu Activity Not available.
METAR OIGG 312200Z 24010KT 7000 TSSHRA SCT020CB SCT025 BKN080 23/20 Q1010

More Conditions Fewer Conditions

Pressure 29.83 in
Visibility 4.3 miles
Clouds Scattered Clouds 2000 ft
Scattered Clouds 2500 ft
Mostly Cloudy 8000 ft
Dew Point 68 °F
Humidity 83%
Rainfall 0.00 in
Snow Depth Not available.
UV 0 out of 12
Pollen Not available.
Air Quality Not available.
Flu Activity Not available.
METAR OIGG 312200Z 24010KT 7000 TSSHRA SCT020CB SCT025 BKN080 23/20 Q1010

More Conditions Fewer Conditions

10-Day Weather Forecast

Almanac

Astronomy

Aug. 01, 2014 Rise Set
Actual Time 6:15 AM IRDT 8:20 PM IRDT
Civil Twilight 5:47 AM IRDT 8:49 PM IRDT
Nautical Twilight 5:11 AM IRDT 9:24 PM IRDT
Astronomical Twilight 4:33 AM IRDT 10:02 PM IRDT
Moon 11:10 AM IRDT (8/1) 11:00 PM IRDT (8/1)
Length of Visible Light 15h 02m
Length of Day
14h 04m
Tomorrow will be 1m 48s shorter.
Waxing Crescent, 21% of the Moon is Illuminated
Jul 31
Waxing Crescent
Aug 3
First Quarter
Aug 10
Full
Aug 17
Last Quarter
Aug 25
New

Yesterday's Extremes

Country Highs Country Lows

Community

WunderPhotos

Upload Photos

1,739,462 photos uploaded!

Nearby

Snow Depth

Not available.

Earthquake Activity

City Distance Mag. Time & Date
No recent earthquake activity has been reported nearby.
Minimum magnitude displayed is 2.5.

Coastal Water Temperatures

Place Temperature
No Stations Reporting

Nearby Weather Stations

There are no personal weather stations in this area.